Terminal Aerodrome Forecast
Issued by NWS

Home | Current Version | Previous Version | Text Only | Print | Product List | Glossary On
Versions: 1 2 3 4 5 6 7 8 9 10 11 12 13 14 15 16 17 18
000
FTAK31 PAFA 221740 AAA
TAFAUN
TAF AMD
PAUN 221740Z 2218/2318 06003KT P6SM SKC
     FM230200 09015KT P6SM SCT100 OVC200
     FM231000 08022G32KT 1/2SM -SN BLSN FG SCT005 BKN012 OVC025=

USA.gov is the U.S. government's official web portal to all federal, state and local government web resources and services.